Gough Island, South Africa
Current Conditions -  °F | °C
As of 3:00 AM on Thursday 27 Nov 2014 (Local Time) from FACT Reporting Station
Broken Clouds Broken Clouds  
Wind Chill: 61°   Ceiling: 200
Heat Index: 61°   Visibility: 4mi
Dew Point: 59°   Wind: 12mph
Humidity: 94%   Direction: 310°NW
Pressure: 29.83"   Gusts: NA
Location:  40.35°S, 9.88°W
Report Text: FACT 270100Z 31010KT 7000 BKN002 16/15 Q1010 NOSIG
Loading
Personal Weather Stations






























Interactive Weather Map New forecast layout! Learn more

10-Day Weather Forecast

Advertisements
Track Severe Weather on mobile